Time;durP1;ratioP1;P1;durP2;ratioP2;P2;SDS_P1;SDS_P2;PMS_P1;PMS_P2;Temp;Humidity;BMP_temperature;BMP_pressure;BME280_temperature;BME280_humidity;BME280_pressure;Samples;Min_cycle;Max_cycle;Signal;HPM_P1;HPM_P2
2021/12/31 00:00:41;;;;;;;46.80;25.42;;;;;;;6.60;100.00;100982.47;5048449;28;20123;-66
2021/12/31 00:03:06;;;;;;;48.47;27.13;;;;;;;6.59;100.00;100984.28;5030794;28;20028;-66
2021/12/31 00:05:32;;;;;;;43.47;25.92;;;;;;;6.62;100.00;100983.22;5030098;28;20111;-66
2021/12/31 00:07:57;;;;;;;45.60;25.67;;;;;;;6.56;100.00;100963.16;5059158;28;20029;-66
2021/12/31 00:10:23;;;;;;;41.92;25.27;;;;;;;6.59;100.00;100965.63;5068586;28;20036;-66
2021/12/31 00:12:49;;;;;;;45.70;24.70;;;;;;;6.62;100.00;100961.91;5048568;28;20353;-66
2021/12/31 00:15:14;;;;;;;44.40;25.65;;;;;;;6.64;100.00;100967.97;5047948;28;20040;-66
2021/12/31 00:17:40;;;;;;;40.80;23.92;;;;;;;6.66;100.00;100971.44;5048535;28;20409;-66
2021/12/31 00:20:14;;;;;;;42.10;24.85;;;;;;;6.62;100.00;100962.75;5049870;28;20044;-66
2021/12/31 00:25:14;;;;;;;40.88;23.77;;;;;;;6.75;100.00;100968.19;5066288;28;20289;-66
2021/12/31 00:27:40;;;;;;;37.60;23.50;;;;;;;6.74;100.00;100962.00;5068577;28;20042;-66
2021/12/31 00:30:06;;;;;;;38.45;22.15;;;;;;;6.74;100.00;100969.16;5068083;28;20028;-65
2021/12/31 00:32:32;;;;;;;41.00;24.50;;;;;;;6.75;100.00;100969.03;5050613;28;20029;-66
2021/12/31 00:34:58;;;;;;;38.30;22.50;;;;;;;6.70;100.00;100959.63;5053768;28;20111;-66
2021/12/31 00:37:28;;;;;;;38.80;22.67;;;;;;;6.78;100.00;100962.69;5071775;28;20032;-66
2021/12/31 00:39:53;;;;;;;41.03;22.85;;;;;;;6.80;100.00;100977.63;5056249;28;20056;-66
2021/12/31 00:42:19;;;;;;;39.63;22.73;;;;;;;6.82;100.00;100972.19;5034034;28;20489;-66
2021/12/31 00:44:44;;;;;;;39.05;21.00;;;;;;;6.76;100.00;100959.25;5034375;28;20024;-66
2021/12/31 00:47:10;;;;;;;37.17;22.05;;;;;;;6.85;100.00;100967.53;5052126;28;20048;-66
2021/12/31 00:49:35;;;;;;;34.75;21.83;;;;;;;6.86;100.00;100963.03;5053814;28;20073;-66
2021/12/31 00:52:01;;;;;;;37.97;22.20;;;;;;;6.82;100.00;100962.41;5057414;28;20469;-66
2021/12/31 00:54:26;;;;;;;34.60;21.20;;;;;;;6.89;100.00;100965.53;5051658;28;20045;-66
2021/12/31 00:56:51;;;;;;;36.75;21.65;;;;;;;6.91;100.00;100947.63;5061533;28;20055;-66
2021/12/31 00:59:17;;;;;;;32.85;20.05;;;;;;;6.93;100.00;100945.72;5045635;28;20043;-66
2021/12/31 01:01:42;;;;;;;35.95;22.02;;;;;;;6.93;100.00;100961.72;5058094;28;20499;-66
2021/12/31 01:04:08;;;;;;;32.80;21.17;;;;;;;6.96;100.00;100967.72;5055516;28;20040;-66
2021/12/31 01:06:33;;;;;;;31.52;20.67;;;;;;;6.96;100.00;100959.72;5051094;28;20033;-66
2021/12/31 01:08:59;;;;;;;32.38;19.65;;;;;;;7.00;100.00;100963.06;5051240;28;20017;-66
2021/12/31 01:11:24;;;;;;;32.95;19.58;;;;;;;7.02;100.00;100954.97;5062488;28;20039;-66
2021/12/31 01:13:58;;;;;;;31.85;20.65;;;;;;;7.02;100.00;100958.47;5071301;28;20032;-66
2021/12/31 01:16:34;;;;;;;32.33;19.63;;;;;;;7.04;100.00;100957.41;5071249;28;20028;-66
2021/12/31 01:21:25;;;;;;;29.42;18.55;;;;;;;7.06;100.00;100967.16;5071265;28;20081;-66
2021/12/31 01:23:51;;;;;;;29.98;20.13;;;;;;;7.09;100.00;100973.13;5071210;28;20067;-66
2021/12/31 01:26:18;;;;;;;31.80;19.27;;;;;;;7.06;100.00;100962.66;5070939;28;20028;-66
2021/12/31 01:28:44;;;;;;;34.90;20.20;;;;;;;6.99;100.00;100945.31;5071119;28;20048;-66
2021/12/31 01:31:10;;;;;;;34.30;21.02;;;;;;;7.10;100.00;100958.00;5070967;28;20350;-66
2021/12/31 01:33:35;;;;;;;32.75;20.77;;;;;;;7.11;100.00;100968.56;5052503;28;20063;-66
2021/12/31 01:36:01;;;;;;;34.28;20.63;;;;;;;7.13;100.00;100971.13;5057166;28;20032;-66
2021/12/31 01:38:28;;;;;;;33.00;20.65;;;;;;;7.12;100.00;100972.94;5032996;28;20832;-66
2021/12/31 01:40:54;;;;;;;34.22;19.80;;;;;;;7.14;100.00;100970.16;5053509;28;20543;-66
2021/12/31 01:43:20;;;;;;;33.80;20.10;;;;;;;7.14;100.00;100973.72;5031539;28;20028;-66
2021/12/31 01:45:55;;;;;;;32.15;19.42;;;;;;;7.12;100.00;100956.09;5053394;28;20040;-66
2021/12/31 01:48:35;;;;;;;34.17;20.88;;;;;;;7.17;100.00;100954.84;5070325;28;20101;-66
2021/12/31 01:51:01;;;;;;;33.08;19.80;;;;;;;7.20;100.00;100961.78;5070795;28;20539;-66
2021/12/31 01:53:27;;;;;;;32.05;19.75;;;;;;;7.22;100.00;100973.22;5068548;28;20025;-72
2021/12/31 01:55:56;;;;;;;30.35;20.10;;;;;;;7.22;100.00;100965.22;5061400;28;20035;-73
2021/12/31 01:58:24;;;;;;;30.88;20.05;;;;;;;7.21;100.00;100976.81;5062351;28;20090;-73
2021/12/31 02:00:50;;;;;;;30.23;18.67;;;;;;;7.23;100.00;100977.59;5038915;28;20161;-73
2021/12/31 02:03:20;;;;;;;30.65;19.27;;;;;;;7.24;100.00;100988.19;5060318;28;20420;-73
2021/12/31 02:05:46;;;;;;;31.63;20.17;;;;;;;7.24;100.00;100977.50;5057980;28;20040;-73
2021/12/31 02:08:12;;;;;;;32.33;20.08;;;;;;;7.25;100.00;100981.03;5052459;28;20029;-66
2021/12/31 02:10:38;;;;;;;31.83;20.30;;;;;;;7.20;100.00;100967.13;5059943;28;20525;-66
2021/12/31 02:13:04;;;;;;;31.90;20.35;;;;;;;7.25;100.00;100981.88;5069937;28;20032;-65
2021/12/31 02:15:30;;;;;;;32.13;20.00;;;;;;;7.17;100.00;100968.19;5064915;28;20079;-65
2021/12/31 02:17:59;;;;;;;34.03;21.30;;;;;;;7.26;100.00;100980.06;5067414;28;20024;-65
2021/12/31 02:20:39;;;;;;;34.33;21.55;;;;;;;7.27;100.00;100971.09;5066172;28;20090;-66
2021/12/31 02:23:07;;;;;;;30.55;20.00;;;;;;;7.17;100.00;100954.84;5049678;28;20029;-65
2021/12/31 02:25:35;;;;;;;29.70;19.23;;;;;;;7.22;100.00;100947.38;5069307;28;20107;-66
2021/12/31 02:28:01;;;;;;;30.73;19.95;;;;;;;7.26;100.00;100964.94;5069647;28;20056;-66
2021/12/31 02:30:29;;;;;;;33.53;20.50;;;;;;;7.22;100.00;100947.38;5069396;28;20075;-66
2021/12/31 02:32:55;;;;;;;34.55;21.05;;;;;;;7.26;100.00;100945.41;5069172;28;20029;-66
2021/12/31 02:35:20;;;;;;;33.85;20.80;;;;;;;7.26;100.00;100946.25;5069208;28;20369;-66
2021/12/31 02:37:46;;;;;;;33.17;20.52;;;;;;;7.26;100.00;100935.59;5066989;28;20029;-65
2021/12/31 02:40:15;;;;;;;37.05;21.00;;;;;;;7.22;100.00;100936.72;5030997;28;20115;-66
2021/12/31 02:42:41;;;;;;;37.60;20.77;;;;;;;7.25;100.00;100933.84;5031211;28;20519;-66
2021/12/31 02:45:08;;;;;;;32.33;19.65;;;;;;;7.26;100.00;100932.91;5039093;28;20028;-66
2021/12/31 02:47:34;;;;;;;31.27;20.30;;;;;;;7.24;100.00;100934.81;5064637;28;20098;-66
2021/12/31 02:50:03;;;;;;;32.95;20.98;;;;;;;7.24;100.00;100940.16;5048850;28;20025;-66
2021/12/31 02:52:29;;;;;;;34.55;21.23;;;;;;;7.21;100.00;100935.00;5054267;28;20119;-66
2021/12/31 02:54:56;;;;;;;33.10;21.15;;;;;;;7.17;100.00;100930.84;5068181;28;20111;-66
2021/12/31 02:57:22;;;;;;;30.95;19.92;;;;;;;7.19;100.00;100936.06;5064502;28;20028;-66
2021/12/31 02:59:48;;;;;;;35.88;22.05;;;;;;;7.25;100.00;100951.69;5058336;28;20508;-72
2021/12/31 03:02:21;;;;;;;34.10;20.73;;;;;;;7.24;100.00;100940.16;5063645;28;20029;-73
2021/12/31 03:04:48;;;;;;;33.90;20.05;;;;;;;7.21;100.00;100929.69;5063547;28;20117;-73
2021/12/31 03:07:16;;;;;;;36.28;21.35;;;;;;;7.26;100.00;100937.38;5055517;28;20020;-73
2021/12/31 03:09:46;;;;;;;38.20;21.98;;;;;;;7.27;100.00;100925.75;5061571;28;20045;-73
2021/12/31 03:12:13;;;;;;;34.53;20.67;;;;;;;7.27;100.00;100917.75;5055481;28;20032;-72
2021/12/31 03:14:41;;;;;;;32.22;20.08;;;;;;;7.23;100.00;100927.78;5041935;28;20076;-72
2021/12/31 03:17:07;;;;;;;30.92;19.65;;;;;;;7.26;100.00;100929.38;5058809;28;20059;-73
2021/12/31 03:19:33;;;;;;;34.92;21.67;;;;;;;7.25;100.00;100925.00;5056445;28;20028;-73
2021/12/31 03:21:58;;;;;;;35.65;21.27;;;;;;;7.26;100.00;100940.06;5059301;28;20124;-73
2021/12/31 03:24:24;;;;;;;31.38;20.48;;;;;;;7.22;100.00;100920.72;5060028;28;20408;-73
2021/12/31 03:26:49;;;;;;;33.95;21.33;;;;;;;7.26;100.00;100924.03;5062689;28;21394;-73
2021/12/31 03:29:15;;;;;;;32.72;20.80;;;;;;;7.20;100.00;100916.44;5059012;28;20354;-73
2021/12/31 03:31:40;;;;;;;32.83;21.05;;;;;;;7.26;100.00;100929.38;5056215;28;20074;-73
2021/12/31 03:34:06;;;;;;;38.38;23.00;;;;;;;7.22;100.00;100923.38;5066109;28;20028;-73
2021/12/31 03:36:31;;;;;;;34.70;21.73;;;;;;;7.21;100.00;100934.16;5061765;28;20119;-73
2021/12/31 03:38:56;;;;;;;34.60;21.30;;;;;;;7.21;100.00;100936.81;5053951;28;20036;-73
2021/12/31 03:41:22;;;;;;;36.35;22.42;;;;;;;7.24;100.00;100944.63;5057534;28;20028;-73
2021/12/31 03:43:47;;;;;;;34.40;20.98;;;;;;;7.23;100.00;100940.25;5055048;28;20084;-74
2021/12/31 03:46:13;;;;;;;39.80;23.08;;;;;;;7.22;100.00;100943.88;5055174;28;20055;-73
2021/12/31 03:48:38;;;;;;;32.50;21.13;;;;;;;7.24;100.00;100934.81;5060063;28;20029;-73
2021/12/31 03:51:04;;;;;;;34.75;21.15;;;;;;;7.17;100.00;100917.50;5055011;28;20098;-73
2021/12/31 03:53:29;;;;;;;36.72;21.55;;;;;;;7.18;100.00;100929.88;5055639;28;20036;-73
2021/12/31 03:55:55;;;;;;;34.90;21.05;;;;;;;7.18;100.00;100929.88;5056901;28;20025;-73
2021/12/31 03:58:20;;;;;;;37.63;21.17;;;;;;;7.21;100.00;100937.69;5060548;28;20028;-73
2021/12/31 04:00:46;;;;;;;37.63;22.00;;;;;;;7.23;100.00;100949.13;5055922;28;20029;-73
2021/12/31 04:03:12;;;;;;;35.25;21.48;;;;;;;7.14;100.00;100927.50;5050623;28;20029;-72
2021/12/31 04:05:40;;;;;;;33.95;21.58;;;;;;;7.22;100.00;100938.53;5055605;28;20032;-73
2021/12/31 04:08:07;;;;;;;37.03;22.25;;;;;;;7.16;100.00;100920.25;5032700;28;20433;-66
2021/12/31 04:10:33;;;;;;;41.50;21.88;;;;;;;7.20;100.00;100919.09;5051363;28;20049;-66
2021/12/31 04:12:58;;;;;;;38.00;22.50;;;;;;;7.17;100.00;100925.50;5051222;28;20040;-66
2021/12/31 04:15:24;;;;;;;37.15;21.15;;;;;;;7.17;100.00;100928.16;5051422;28;20059;-66
2021/12/31 04:17:50;;;;;;;40.45;23.92;;;;;;;7.14;100.00;100928.38;5051134;28;20477;-66
2021/12/31 04:20:33;;;;;;;36.50;22.55;;;;;;;7.16;100.00;100929.09;5051138;28;20059;-66
2021/12/31 04:23:02;;;;;;;38.45;22.55;;;;;;;7.16;100.00;100937.09;5051018;28;20059;-66
2021/12/31 04:25:27;;;;;;;33.75;21.83;;;;;;;7.12;100.00;100932.09;5050989;28;20036;-66
2021/12/31 04:27:53;;;;;;;32.50;20.95;;;;;;;7.06;100.00;100921.81;5051023;28;20636;-66
2021/12/31 04:30:18;;;;;;;37.90;22.85;;;;;;;7.09;100.00;100929.63;5053949;28;20081;-73
2021/12/31 04:32:44;;;;;;;38.88;22.17;;;;;;;7.09;100.00;100932.28;5060873;28;20029;-72
2021/12/31 04:35:13;;;;;;;35.90;23.08;;;;;;;7.04;100.00;100936.06;5066255;28;20024;-66
2021/12/31 04:37:43;;;;;;;38.40;23.05;;;;;;;6.97;100.00;100928.59;5070753;28;20119;-66
2021/12/31 04:40:11;;;;;;;36.03;21.83;;;;;;;7.00;100.00;100937.22;5060374;28;20028;-73
2021/12/31 04:42:39;;;;;;;36.80;22.27;;;;;;;6.98;100.00;100944.50;5055169;28;20523;-73
2021/12/31 04:45:05;;;;;;;37.42;22.58;;;;;;;6.98;100.00;100943.63;5042528;28;20039;-73
2021/12/31 04:47:30;;;;;;;38.67;22.92;;;;;;;6.94;100.00;100934.94;5058727;28;20464;-66
2021/12/31 04:49:56;;;;;;;34.85;22.00;;;;;;;6.90;100.00;100920.09;5050638;28;20108;-66
2021/12/31 04:52:21;;;;;;;38.03;22.85;;;;;;;6.94;100.00;100937.63;5050477;28;20029;-66
2021/12/31 04:54:47;;;;;;;40.22;21.88;;;;;;;6.93;100.00;100925.25;5070290;28;20477;-66
2021/12/31 04:57:12;;;;;;;38.80;22.90;;;;;;;6.92;100.00;100925.34;5070072;28;20020;-66
2021/12/31 04:59:38;;;;;;;34.28;20.95;;;;;;;6.95;100.00;100928.69;5042290;28;20029;-66
2021/12/31 05:02:03;;;;;;;37.50;23.33;;;;;;;6.96;100.00;100927.72;5070613;28;20032;-66
2021/12/31 05:04:29;;;;;;;36.85;23.35;;;;;;;6.90;100.00;100924.56;5061043;28;20044;-66
2021/12/31 05:06:54;;;;;;;39.13;24.50;;;;;;;6.94;100.00;100926.94;5051975;28;20072;-67
2021/12/31 05:09:19;;;;;;;36.78;22.60;;;;;;;6.95;100.00;100933.16;5069923;28;20049;-66
2021/12/31 05:11:45;;;;;;;37.45;22.73;;;;;;;6.92;100.00;100923.53;5070198;28;20036;-66
2021/12/31 05:14:11;;;;;;;35.60;22.50;;;;;;;6.93;100.00;100930.56;5052088;28;20086;-66
2021/12/31 05:16:37;;;;;;;39.05;23.77;;;;;;;6.93;100.00;100933.25;5059985;28;20059;-73
2021/12/31 05:19:04;;;;;;;41.42;23.55;;;;;;;6.95;100.00;100930.47;5067875;28;20477;-73
2021/12/31 05:21:30;;;;;;;41.53;23.35;;;;;;;6.94;100.00;100932.28;5067424;28;20020;-73
2021/12/31 05:23:56;;;;;;;41.40;24.10;;;;;;;6.96;100.00;100941.06;5062424;28;20123;-73
2021/12/31 05:26:22;;;;;;;41.63;24.98;;;;;;;6.91;100.00;100926.31;5054604;28;20052;-72
2021/12/31 05:28:47;;;;;;;39.97;23.38;;;;;;;6.94;100.00;100929.63;5059354;28;20052;-72
2021/12/31 05:31:12;;;;;;;39.20;23.42;;;;;;;6.88;100.00;100922.03;5039135;28;20032;-73
2021/12/31 05:33:38;;;;;;;44.38;25.42;;;;;;;6.90;100.00;100921.91;5064975;28;20028;-73
2021/12/31 05:36:04;;;;;;;44.15;25.05;;;;;;;6.92;100.00;100926.22;5058353;28;20036;-73
2021/12/31 05:38:29;;;;;;;40.80;24.45;;;;;;;6.94;100.00;100931.44;5053409;28;20071;-71
2021/12/31 05:40:54;;;;;;;46.40;26.70;;;;;;;6.94;100.00;100937.63;5064918;28;20017;-73
2021/12/31 05:43:20;;;;;;;42.47;25.17;;;;;;;6.95;100.00;100942.00;5057908;28;20067;-72
2021/12/31 05:45:45;;;;;;;39.05;24.38;;;;;;;6.93;100.00;100941.25;5062247;28;20474;-72
2021/12/31 05:48:11;;;;;;;45.70;25.77;;;;;;;6.95;100.00;100938.47;5064769;28;20504;-72
2021/12/31 05:50:36;;;;;;;43.47;25.83;;;;;;;6.96;100.00;100938.38;5059564;28;20226;-73
2021/12/31 05:53:02;;;;;;;40.30;24.98;;;;;;;6.93;100.00;100941.25;5060329;28;20047;-72
2021/12/31 05:55:28;;;;;;;43.65;25.52;;;;;;;6.89;100.00;100931.72;5062563;28;20036;-73
2021/12/31 05:57:56;;;;;;;43.83;26.67;;;;;;;6.92;100.00;100952.00;5061985;28;20033;-72
2021/12/31 06:00:23;;;;;;;44.00;26.27;;;;;;;6.92;100.00;100944.88;5062215;28;20059;-72
2021/12/31 06:02:49;;;;;;;41.90;25.05;;;;;;;6.93;100.00;100949.25;5060198;28;20044;-72
2021/12/31 06:05:15;;;;;;;42.03;25.90;;;;;;;6.94;100.00;100950.94;5064874;28;20355;-72
2021/12/31 06:07:40;;;;;;;41.38;24.77;;;;;;;6.93;100.00;100953.72;5042492;28;20094;-72
2021/12/31 06:10:06;;;;;;;41.05;25.20;;;;;;;6.92;100.00;100949.34;5062443;28;20095;-72
2021/12/31 06:12:34;;;;;;;36.10;23.70;;;;;;;6.96;100.00;100962.38;5058666;28;20552;-73
2021/12/31 06:15:03;;;;;;;40.72;23.35;;;;;;;6.96;100.00;100965.06;5058968;28;20025;-73
2021/12/31 06:17:29;;;;;;;40.70;23.80;;;;;;;6.95;100.00;100971.34;5055060;28;20670;-73
2021/12/31 06:19:55;;;;;;;40.90;23.08;;;;;;;6.95;100.00;100965.16;5069647;28;20043;-74
2021/12/31 06:22:21;;;;;;;39.10;22.80;;;;;;;6.96;100.00;100965.06;5067325;28;20028;-74
2021/12/31 06:24:47;;;;;;;37.83;23.17;;;;;;;6.98;100.00;100967.63;5061357;28;20074;-74
2021/12/31 06:27:13;;;;;;;33.58;22.02;;;;;;;6.98;100.00;100968.50;5058435;28;20043;-74
2021/12/31 06:29:38;;;;;;;36.00;22.27;;;;;;;7.00;100.00;100968.41;5053903;28;20056;-74
2021/12/31 06:32:04;;;;;;;35.15;21.55;;;;;;;7.00;100.00;100971.06;5062015;28;20016;-74
2021/12/31 06:34:30;;;;;;;31.35;20.58;;;;;;;7.00;100.00;100966.56;5040284;28;20094;-74
2021/12/31 06:36:56;;;;;;;34.28;21.60;;;;;;;7.06;100.00;100972.47;5038053;28;20029;-74
2021/12/31 06:39:21;;;;;;;34.63;21.52;;;;;;;7.05;100.00;100971.63;5061447;28;20079;-67
2021/12/31 06:41:47;;;;;;;34.03;19.63;;;;;;;7.08;100.00;100979.41;5049060;28;20440;-66
2021/12/31 06:44:13;;;;;;;31.50;20.92;;;;;;;7.12;100.00;100986.28;5048994;28;20063;-66
2021/12/31 06:46:39;;;;;;;31.85;19.98;;;;;;;7.07;100.00;100984.84;5052537;28;20453;-74
2021/12/31 06:49:05;;;;;;;33.30;20.23;;;;;;;7.08;100.00;100987.44;5055823;28;20028;-74
2021/12/31 06:51:30;;;;;;;33.47;19.85;;;;;;;7.14;100.00;100992.38;5055587;28;20036;-73
2021/12/31 06:53:56;;;;;;;30.55;20.17;;;;;;;7.16;100.00;100998.44;5039684;28;20491;-74
2021/12/31 06:56:21;;;;;;;33.00;20.25;;;;;;;7.16;100.00;100993.13;5062174;28;20020;-74
2021/12/31 06:58:46;;;;;;;31.13;20.17;;;;;;;7.18;100.00;100993.03;5056940;28;20039;-73
2021/12/31 07:01:12;;;;;;;35.08;21.13;;;;;;;7.21;100.00;100998.16;5055126;28;20028;-74
2021/12/31 07:03:37;;;;;;;36.03;22.02;;;;;;;7.22;100.00;100999.91;5062549;28;20808;-73
2021/12/31 07:06:03;;;;;;;33.58;21.40;;;;;;;7.24;100.00;101003.31;5059782;28;20037;-74
2021/12/31 07:08:28;;;;;;;29.90;20.33;;;;;;;7.24;100.00;101008.66;5059526;28;20024;-73
2021/12/31 07:10:54;;;;;;;33.72;20.85;;;;;;;7.25;100.00;101016.56;5055831;28;20068;-73
2021/12/31 07:13:19;;;;;;;36.00;21.45;;;;;;;7.24;100.00;101009.50;5052726;28;20381;-74
2021/12/31 07:15:49;;;;;;;32.10;20.38;;;;;;;7.27;100.00;101024.47;5059727;28;20040;-73
2021/12/31 07:18:16;;;;;;;34.78;21.75;;;;;;;7.27;100.00;101014.66;5061868;28;20031;-73
2021/12/31 07:20:41;;;;;;;33.58;21.05;;;;;;;7.28;100.00;101011.03;5063389;28;20033;-74
2021/12/31 07:23:09;;;;;;;33.88;21.20;;;;;;;7.36;100.00;101029.22;5055776;28;20112;-74
2021/12/31 07:25:36;;;;;;;32.75;20.40;;;;;;;7.39;100.00;101029.91;5052544;28;20119;-74
2021/12/31 07:28:02;;;;;;;29.73;19.95;;;;;;;7.41;100.00;101025.31;5061075;28;20082;-74
2021/12/31 07:30:28;;;;;;;31.92;20.33;;;;;;;7.47;100.00;101026.72;5041804;28;20033;-74
2021/12/31 07:32:53;;;;;;;31.02;20.73;;;;;;;7.50;100.00;101026.53;5039241;28;20025;-73
2021/12/31 07:35:36;;;;;;;29.05;19.30;;;;;;;7.52;100.00;101024.63;5051972;28;20029;-73
2021/12/31 07:38:01;;;;;;;29.20;19.17;;;;;;;7.55;100.00;101011.09;5052780;28;20044;-73
2021/12/31 07:40:41;;;;;;;32.13;21.25;;;;;;;7.59;100.00;101023.28;5048725;28;20583;-73
2021/12/31 07:43:08;;;;;;;29.25;17.83;;;;;;;7.65;100.00;101021.09;5059305;28;20071;-73
2021/12/31 07:45:34;;;;;;;25.20;17.25;;;;;;;7.67;100.00;101026.31;5059041;28;20025;-74
2021/12/31 07:48:00;;;;;;;26.90;17.60;;;;;;;7.69;100.00;101030.59;5053117;28;20442;-74
2021/12/31 07:50:26;;;;;;;25.13;17.88;;;;;;;7.73;100.00;101037.44;5070666;28;20024;-73
2021/12/31 07:52:51;;;;;;;26.25;16.20;;;;;;;7.71;100.00;101027.84;5070251;28;20028;-73
2021/12/31 07:55:17;;;;;;;27.85;18.63;;;;;;;7.77;100.00;101033.63;5055493;28;21806;-67
2021/12/31 07:57:42;;;;;;;28.85;16.10;;;;;;;7.82;100.00;101025.31;5056831;28;20034;-67
2021/12/31 08:00:08;;;;;;;28.33;18.60;;;;;;;7.86;100.00;101019.66;5045885;28;20093;-66
2021/12/31 08:02:33;;;;;;;27.65;18.10;;;;;;;7.90;100.00;101021.19;5054090;28;20041;-67
2021/12/31 08:04:59;;;;;;;27.00;17.55;;;;;;;7.93;100.00;101012.13;5059622;28;20025;-66
2021/12/31 08:07:24;;;;;;;27.05;18.38;;;;;;;7.98;100.00;101015.34;5052050;28;20381;-66
2021/12/31 08:09:50;;;;;;;28.02;17.60;;;;;;;8.02;100.00;101004.34;5052744;28;20072;-74
2021/12/31 08:12:15;;;;;;;26.17;17.23;;;;;;;8.07;100.00;101009.38;5071547;28;20036;-74
2021/12/31 08:14:41;;;;;;;27.60;18.92;;;;;;;8.09;100.00;101005.66;5070483;28;20418;-74
2021/12/31 08:17:06;;;;;;;25.55;18.08;;;;;;;8.13;100.00;100996.47;5059786;28;20063;-74
2021/12/31 08:19:31;;;;;;;26.33;17.77;;;;;;;8.23;100.00;101005.63;5042865;28;20066;-74
2021/12/31 08:21:57;;;;;;;29.83;18.42;;;;;;;8.29;100.00;101012.38;5065150;28;20025;-74
2021/12/31 08:24:22;;;;;;;25.42;17.15;;;;;;;8.36;100.00;101017.22;5058643;28;20025;-75
2021/12/31 08:26:48;;;;;;;26.00;16.92;;;;;;;8.53;100.00;101024.06;5061426;28;20063;-74
2021/12/31 08:29:15;;;;;;;22.48;15.30;;;;;;;8.52;100.00;101020.53;5048509;28;20052;-74
2021/12/31 08:31:41;;;;;;;24.00;16.67;;;;;;;8.55;100.00;101025.66;5066706;28;20389;-74
2021/12/31 08:34:10;;;;;;;21.90;15.07;;;;;;;8.57;100.00;101029.09;5062615;28;20024;-74
2021/12/31 08:36:35;;;;;;;23.88;15.30;;;;;;;8.63;100.00;101031.38;5047262;28;20032;-75
2021/12/31 08:39:07;;;;;;;25.08;15.73;;;;;;;8.66;100.00;101028.47;5071739;28;20477;-67
2021/12/31 08:41:39;;;;;;;21.00;14.52;;;;;;;8.69;100.00;101022.06;5071599;28;20037;-67
2021/12/31 08:44:07;;;;;;;24.65;14.75;;;;;;;8.80;100.00;101027.50;5057719;28;20024;-67
2021/12/31 08:46:33;;;;;;;22.25;14.82;;;;;;;8.84;100.00;101019.16;5057189;28;20024;-67
2021/12/31 08:48:59;;;;;;;20.30;15.00;;;;;;;8.90;100.00;101031.28;5059403;28;20028;-66
2021/12/31 08:51:25;;;;;;;19.52;13.98;;;;;;;8.90;100.00;101028.63;5071397;28;20040;-67
2021/12/31 08:53:52;;;;;;;21.40;14.48;;;;;;;8.88;100.00;101028.72;5057366;28;20078;-67
2021/12/31 08:56:18;;;;;;;23.30;15.23;;;;;;;8.83;100.00;101022.81;5051736;28;20366;-67
2021/12/31 08:58:43;;;;;;;23.52;15.50;;;;;;;8.83;100.00;101027.31;5051463;28;20055;-67
2021/12/31 09:01:09;;;;;;;22.77;14.93;;;;;;;8.85;100.00;101034.28;5070255;28;20067;-67
2021/12/31 09:03:34;;;;;;;20.20;14.18;;;;;;;8.83;100.00;101032.66;5069766;28;20119;-68
2021/12/31 09:06:00;;;;;;;21.58;15.57;;;;;;;8.87;100.00;101043.03;5070565;28;20051;-67
2021/12/31 09:08:25;;;;;;;20.45;13.68;;;;;;;8.84;100.00;101029.88;5068776;28;20024;-75
2021/12/31 09:10:51;;;;;;;22.38;15.32;;;;;;;8.89;100.00;101025.06;5047198;28;20040;-75
2021/12/31 09:13:17;;;;;;;19.90;14.43;;;;;;;8.97;100.00;101035.25;5063993;28;20033;-76
2021/12/31 09:15:42;;;;;;;19.13;13.88;;;;;;;8.99;100.00;101027.94;5059733;28;20037;-74
2021/12/31 09:18:07;;;;;;;21.38;14.88;;;;;;;8.98;100.00;101021.75;5063171;28;20024;-75
2021/12/31 09:20:33;;;;;;;22.88;15.30;;;;;;;9.08;100.00;101036.19;5068017;28;20032;-67
2021/12/31 09:22:58;;;;;;;22.52;15.38;;;;;;;9.15;100.00;101031.25;5071081;28;20084;-67
2021/12/31 09:25:24;;;;;;;21.50;15.38;;;;;;;9.11;100.00;101016.38;5070644;28;20056;-67
2021/12/31 09:27:50;;;;;;;20.77;14.60;;;;;;;9.26;100.00;101024.19;5038984;28;20409;-76
2021/12/31 09:30:16;;;;;;;21.25;14.57;;;;;;;9.33;100.00;101028.13;5067153;28;20107;-76
2021/12/31 09:32:42;;;;;;;21.38;13.68;;;;;;;9.36;100.00;101018.16;5046283;28;20028;-75
2021/12/31 09:35:08;;;;;;;18.42;12.85;;;;;;;9.45;100.00;101033.59;5043485;28;20025;-76
2021/12/31 09:37:34;;;;;;;18.63;12.57;;;;;;;9.54;100.00;101030.25;5065645;28;20028;-74
2021/12/31 09:40:00;;;;;;;18.38;13.18;;;;;;;9.57;100.00;101033.53;5056716;28;20043;-76
2021/12/31 09:42:25;;;;;;;19.92;13.27;;;;;;;9.69;100.00;101037.16;5052530;28;20032;-67
2021/12/31 09:44:51;;;;;;;17.95;12.90;;;;;;;9.77;100.00;101035.63;5070686;28;20028;-67
2021/12/31 09:47:18;;;;;;;21.00;12.90;;;;;;;9.87;100.00;101022.44;5064205;28;20021;-67
2021/12/31 09:49:46;;;;;;;19.23;12.85;;;;;;;9.97;100.00;101031.50;5032710;28;20025;-67
2021/12/31 09:52:14;;;;;;;20.35;13.77;;;;;;;10.05;100.00;101026.41;5050658;28;20040;-67
2021/12/31 09:54:48;;;;;;;18.25;13.55;;;;;;;10.06;100.00;101031.69;5050472;28;20056;-68
2021/12/31 09:57:22;;;;;;;17.58;12.00;;;;;;;10.12;100.00;101015.16;5066281;28;20418;-67
2021/12/31 09:59:47;;;;;;;;;;;;;;;10.18;100.00;101021.88;5070824;28;20486;-68
2021/12/31 10:02:15;;;;;;;21.35;12.77;;;;;;;10.24;100.00;101000.84;5067460;28;19913;-67
2021/12/31 10:04:52;;;;;;;18.10;12.13;;;;;;;10.36;100.00;101001.72;5058962;28;20020;-67
2021/12/31 10:07:21;;;;;;;18.98;12.48;;;;;;;10.40;100.00;100996.03;5067521;28;20028;-67
2021/12/31 10:10:26;;;;;;;16.60;10.50;;;;;;;10.44;100.00;101002.84;5043352;28;20424;-67
2021/12/31 10:12:56;;;;;;;16.67;11.00;;;;;;;10.54;100.00;101009.22;4991305;28;20038;-66
2021/12/31 10:15:26;;;;;;;15.35;10.68;;;;;;;10.59;100.00;100990.97;4988571;28;20034;-67
2021/12/31 10:17:53;;;;;;;12.73;9.73;;;;;;;10.79;100.00;101002.81;5034042;28;20090;-66
2021/12/31 10:20:20;;;;;;;15.02;10.23;;;;;;;10.91;100.00;101007.22;5063186;28;20040;-67
2021/12/31 10:22:46;;;;;;;13.32;9.85;;;;;;;10.95;100.00;101001.50;5049598;28;20056;-67
2021/12/31 10:25:30;;;;;;;14.88;10.95;;;;;;;11.08;100.00;100994.19;5052730;28;20074;-66
2021/12/31 10:28:11;;;;;;;14.52;9.63;;;;;;;11.14;100.00;101001.78;5052357;28;20075;-65
2021/12/31 10:30:37;;;;;;;17.40;10.10;;;;;;;11.09;100.00;100981.59;5069543;28;20040;-68
2021/12/31 10:33:02;;;;;;;14.98;10.43;;;;;;;11.31;100.00;100995.03;5067259;28;20029;-66
2021/12/31 10:35:38;;;;;;;12.75;9.45;;;;;;;11.38;100.00;100997.09;5058434;28;20036;-67
2021/12/31 10:38:04;;;;;;;13.20;10.48;;;;;;;11.48;100.00;100992.69;5049690;28;20534;-66
2021/12/31 10:40:36;;;;;;;13.45;9.30;;;;;;;11.54;100.00;100994.03;5063937;28;20555;-67
2021/12/31 10:43:23;;;;;;;14.23;9.95;;;;;;;11.55;100.00;100993.91;5067001;28;20040;-67
2021/12/31 10:46:11;;;;;;;13.10;9.65;;;;;;;11.57;100.00;100999.16;5042824;28;20057;-67
2021/12/31 10:48:43;;;;;;;17.27;10.13;;;;;;;11.52;100.00;100975.34;5060325;28;20058;-67
2021/12/31 10:51:11;;;;;;;18.90;10.40;;;;;;;11.65;100.00;100988.69;5050854;28;20052;-67
2021/12/31 10:53:37;;;;;;;13.23;9.32;;;;;;;11.64;100.00;100988.81;5049387;28;20112;-66
2021/12/31 10:56:11;;;;;;;14.15;8.77;;;;;;;11.79;100.00;100988.41;5049492;28;20109;-67
2021/12/31 10:58:38;;;;;;;;;;;;;;;11.87;100.00;100969.84;5049382;28;20352;-67
2021/12/31 11:01:06;;;;;;;11.85;8.48;;;;;;;11.89;100.00;100965.16;5065204;28;19916;-67
2021/12/31 11:03:33;;;;;;;11.50;8.60;;;;;;;12.07;100.00;100966.31;5068285;28;20098;-67
2021/12/31 11:06:00;;;;;;;11.98;8.60;;;;;;;12.15;100.00;100979.97;5049301;28;20107;-68
2021/12/31 11:08:27;;;;;;;11.52;8.55;;;;;;;12.22;100.00;100962.31;5049158;28;20033;-67
2021/12/31 11:10:54;;;;;;;13.90;9.20;;;;;;;12.28;100.00;100969.06;5048853;28;20580;-66
2021/12/31 11:13:22;;;;;;;12.40;8.57;;;;;;;12.30;100.00;100961.69;5049313;28;20543;-67